sensor_id;sensor_type;location;lat;lon;timestamp;temperature;humidity
15455;DHT22;21057;51.024;7.540;2023-03-26T00:01:36;8.90;99.90
15455;DHT22;21057;51.024;7.540;2023-03-26T00:04:05;8.90;99.90
15455;DHT22;21057;51.024;7.540;2023-03-26T00:06:34;9.00;99.90
15455;DHT22;21057;51.024;7.540;2023-03-26T00:09:04;8.90;99.90
15455;DHT22;21057;51.024;7.540;2023-03-26T00:11:34;9.00;99.90
15455;DHT22;21057;51.024;7.540;2023-03-26T00:14:09;9.00;99.90
15455;DHT22;21057;51.024;7.540;2023-03-26T00:16:39;9.00;99.90
15455;DHT22;21057;51.024;7.540;2023-03-26T00:19:06;8.90;99.90
15455;DHT22;21057;51.024;7.540;2023-03-26T00:21:33;9.00;99.90
15455;DHT22;21057;51.024;7.540;2023-03-26T00:24:02;9.10;99.90
15455;DHT22;21057;51.024;7.540;2023-03-26T00:26:32;9.20;99.90
15455;DHT22;21057;51.024;7.540;2023-03-26T00:28:59;9.20;99.90
15455;DHT22;21057;51.024;7.540;2023-03-26T00:31:30;9.10;99.90
15455;DHT22;21057;51.024;7.540;2023-03-26T00:33:57;9.10;99.90
15455;DHT22;21057;51.024;7.540;2023-03-26T00:36:30;9.30;99.90
15455;DHT22;21057;51.024;7.540;2023-03-26T00:39:00;9.30;99.90
15455;DHT22;21057;51.024;7.540;2023-03-26T00:41:29;9.40;99.90
15455;DHT22;21057;51.024;7.540;2023-03-26T00:43:57;9.40;99.90
15455;DHT22;21057;51.024;7.540;2023-03-26T00:46:28;9.40;99.90
15455;DHT22;21057;51.024;7.540;2023-03-26T00:48:58;9.50;99.90
15455;DHT22;21057;51.024;7.540;2023-03-26T00:51:26;9.50;99.90
15455;DHT22;21057;51.024;7.540;2023-03-26T00:53:53;9.50;99.90
15455;DHT22;21057;51.024;7.540;2023-03-26T00:56:23;9.30;99.90
15455;DHT22;21057;51.024;7.540;2023-03-26T00:58:50;9.20;99.90
15455;DHT22;21057;51.024;7.540;2023-03-26T01:01:21;9.20;99.90
15455;DHT22;21057;51.024;7.540;2023-03-26T01:03:52;9.10;99.90
15455;DHT22;21057;51.024;7.540;2023-03-26T01:06:26;9.20;99.90
15455;DHT22;21057;51.024;7.540;2023-03-26T01:09:00;9.20;99.90
15455;DHT22;21057;51.024;7.540;2023-03-26T01:11:33;9.40;99.90
15455;DHT22;21057;51.024;7.540;2023-03-26T01:14:05;9.40;99.90
15455;DHT22;21057;51.024;7.540;2023-03-26T01:16:37;9.30;99.90
15455;DHT22;21057;51.024;7.540;2023-03-26T01:19:07;9.50;99.90
15455;DHT22;21057;51.024;7.540;2023-03-26T01:21:39;9.50;99.90
15455;DHT22;21057;51.024;7.540;2023-03-26T01:24:09;9.60;99.90
15455;DHT22;21057;51.024;7.540;2023-03-26T01:26:59;9.70;99.90
15455;DHT22;21057;51.024;7.540;2023-03-26T01:29:32;9.80;99.90
15455;DHT22;21057;51.024;7.540;2023-03-26T01:32:15;9.80;99.90
15455;DHT22;21057;51.024;7.540;2023-03-26T01:34:52;9.80;99.90
15455;DHT22;21057;51.024;7.540;2023-03-26T01:37:24;9.80;99.90
15455;DHT22;21057;51.024;7.540;2023-03-26T01:39:57;9.90;99.90
15455;DHT22;21057;51.024;7.540;2023-03-26T01:42:35;9.80;99.90
15455;DHT22;21057;51.024;7.540;2023-03-26T01:45:08;9.80;99.90
15455;DHT22;21057;51.024;7.540;2023-03-26T01:47:44;9.90;99.90
15455;DHT22;21057;51.024;7.540;2023-03-26T01:50:16;9.90;99.90
15455;DHT22;21057;51.024;7.540;2023-03-26T01:52:43;9.80;99.90
15455;DHT22;21057;51.024;7.540;2023-03-26T01:55:12;9.90;99.90
15455;DHT22;21057;51.024;7.540;2023-03-26T01:57:50;10.00;99.90
15455;DHT22;21057;51.024;7.540;2023-03-26T02:00:28;10.00;99.90
15455;DHT22;21057;51.024;7.540;2023-03-26T02:03:05;9.80;99.90
15455;DHT22;21057;51.024;7.540;2023-03-26T02:05:46;9.90;99.90
15455;DHT22;21057;51.024;7.540;2023-03-26T02:08:19;9.80;99.90
15455;DHT22;21057;51.024;7.540;2023-03-26T02:10:50;9.60;99.90
15455;DHT22;21057;51.024;7.540;2023-03-26T02:13:18;9.80;99.90
15455;DHT22;21057;51.024;7.540;2023-03-26T02:15:54;9.60;99.90
15455;DHT22;21057;51.024;7.540;2023-03-26T02:18:21;9.50;99.90
15455;DHT22;21057;51.024;7.540;2023-03-26T02:20:49;9.50;99.90
15455;DHT22;21057;51.024;7.540;2023-03-26T02:23:18;9.40;99.90
15455;DHT22;21057;51.024;7.540;2023-03-26T02:25:45;9.40;99.90
15455;DHT22;21057;51.024;7.540;2023-03-26T02:28:13;9.40;99.90
15455;DHT22;21057;51.024;7.540;2023-03-26T02:30:42;9.30;99.90
15455;DHT22;21057;51.024;7.540;2023-03-26T02:33:10;9.40;99.90
15455;DHT22;21057;51.024;7.540;2023-03-26T02:35:40;9.40;99.90
15455;DHT22;21057;51.024;7.540;2023-03-26T02:38:15;9.30;99.90
15455;DHT22;21057;51.024;7.540;2023-03-26T02:40:47;9.30;99.90
15455;DHT22;21057;51.024;7.540;2023-03-26T02:43:15;9.30;99.90
15455;DHT22;21057;51.024;7.540;2023-03-26T02:45:42;9.30;99.90
15455;DHT22;21057;51.024;7.540;2023-03-26T02:48:09;9.20;99.90
15455;DHT22;21057;51.024;7.540;2023-03-26T02:50:36;9.10;99.90
15455;DHT22;21057;51.024;7.540;2023-03-26T02:53:06;9.10;99.90
15455;DHT22;21057;51.024;7.540;2023-03-26T02:55:34;9.20;99.90
15455;DHT22;21057;51.024;7.540;2023-03-26T02:58:01;9.20;99.90
15455;DHT22;21057;51.024;7.540;2023-03-26T03:00:32;9.20;99.90
15455;DHT22;21057;51.024;7.540;2023-03-26T03:02:58;9.20;99.90
15455;DHT22;21057;51.024;7.540;2023-03-26T03:05:29;9.20;99.90
15455;DHT22;21057;51.024;7.540;2023-03-26T03:07:56;9.30;99.90
15455;DHT22;21057;51.024;7.540;2023-03-26T03:10:23;9.20;99.90
15455;DHT22;21057;51.024;7.540;2023-03-26T03:12:58;9.20;99.90
15455;DHT22;21057;51.024;7.540;2023-03-26T03:15:25;9.20;99.90
15455;DHT22;21057;51.024;7.540;2023-03-26T03:17:53;9.10;99.90
15455;DHT22;21057;51.024;7.540;2023-03-26T03:20:20;9.10;99.90
15455;DHT22;21057;51.024;7.540;2023-03-26T03:22:47;9.10;99.90
15455;DHT22;21057;51.024;7.540;2023-03-26T03:25:14;9.00;99.90
15455;DHT22;21057;51.024;7.540;2023-03-26T03:27:43;9.00;99.90
15455;DHT22;21057;51.024;7.540;2023-03-26T03:30:11;8.90;99.90
15455;DHT22;21057;51.024;7.540;2023-03-26T03:32:42;9.00;99.90
15455;DHT22;21057;51.024;7.540;2023-03-26T03:35:11;9.00;99.90
15455;DHT22;21057;51.024;7.540;2023-03-26T03:37:38;9.00;99.90
15455;DHT22;21057;51.024;7.540;2023-03-26T03:40:06;8.90;99.90
15455;DHT22;21057;51.024;7.540;2023-03-26T03:42:34;9.00;99.90
15455;DHT22;21057;51.024;7.540;2023-03-26T03:45:01;9.00;99.90
15455;DHT22;21057;51.024;7.540;2023-03-26T03:47:35;8.90;99.90
15455;DHT22;21057;51.024;7.540;2023-03-26T03:50:02;9.00;99.90
15455;DHT22;21057;51.024;7.540;2023-03-26T03:52:30;8.90;99.90
15455;DHT22;21057;51.024;7.540;2023-03-26T03:55:11;8.90;99.90
15455;DHT22;21057;51.024;7.540;2023-03-26T03:57:39;8.90;99.90
15455;DHT22;21057;51.024;7.540;2023-03-26T04:00:07;8.80;99.90
15455;DHT22;21057;51.024;7.540;2023-03-26T04:02:53;8.80;99.90
15455;DHT22;21057;51.024;7.540;2023-03-26T04:05:25;8.90;99.90
15455;DHT22;21057;51.024;7.540;2023-03-26T04:07:53;8.90;99.90
15455;DHT22;21057;51.024;7.540;2023-03-26T04:10:20;8.90;99.90
15455;DHT22;21057;51.024;7.540;2023-03-26T04:12:47;8.80;99.90
15455;DHT22;21057;51.024;7.540;2023-03-26T04:15:14;8.80;99.90
15455;DHT22;21057;51.024;7.540;2023-03-26T04:17:41;8.80;99.90
15455;DHT22;21057;51.024;7.540;2023-03-26T04:20:19;8.80;99.90
15455;DHT22;21057;51.024;7.540;2023-03-26T04:22:55;8.70;99.90
15455;DHT22;21057;51.024;7.540;2023-03-26T04:25:23;8.80;99.90
15455;DHT22;21057;51.024;7.540;2023-03-26T04:28:02;8.70;99.90
15455;DHT22;21057;51.024;7.540;2023-03-26T04:30:38;8.70;99.90
15455;DHT22;21057;51.024;7.540;2023-03-26T04:33:11;8.80;99.90
15455;DHT22;21057;51.024;7.540;2023-03-26T04:35:44;8.80;99.90
15455;DHT22;21057;51.024;7.540;2023-03-26T04:38:19;8.70;99.90
15455;DHT22;21057;51.024;7.540;2023-03-26T04:40:46;8.70;99.90
15455;DHT22;21057;51.024;7.540;2023-03-26T04:43:14;8.70;99.90
15455;DHT22;21057;51.024;7.540;2023-03-26T04:45:43;8.80;99.90
15455;DHT22;21057;51.024;7.540;2023-03-26T04:48:10;8.70;99.90
15455;DHT22;21057;51.024;7.540;2023-03-26T04:50:39;8.70;99.90
15455;DHT22;21057;51.024;7.540;2023-03-26T04:53:10;8.70;99.90
15455;DHT22;21057;51.024;7.540;2023-03-26T04:55:45;8.70;99.90
15455;DHT22;21057;51.024;7.540;2023-03-26T04:58:13;8.70;99.90
15455;DHT22;21057;51.024;7.540;2023-03-26T05:00:42;8.70;99.90
15455;DHT22;21057;51.024;7.540;2023-03-26T05:03:11;8.70;99.90
15455;DHT22;21057;51.024;7.540;2023-03-26T05:05:39;8.80;99.90
15455;DHT22;21057;51.024;7.540;2023-03-26T05:08:06;8.70;99.90
15455;DHT22;21057;51.024;7.540;2023-03-26T05:10:33;8.80;99.90
15455;DHT22;21057;51.024;7.540;2023-03-26T05:13:01;8.70;99.90
15455;DHT22;21057;51.024;7.540;2023-03-26T05:15:40;8.70;99.90
15455;DHT22;21057;51.024;7.540;2023-03-26T05:18:07;8.70;99.90
15455;DHT22;21057;51.024;7.540;2023-03-26T05:20:34;8.70;99.90
15455;DHT22;21057;51.024;7.540;2023-03-26T05:23:09;8.70;99.90
15455;DHT22;21057;51.024;7.540;2023-03-26T05:25:36;8.70;99.90
15455;DHT22;21057;51.024;7.540;2023-03-26T05:28:04;8.60;99.90
15455;DHT22;21057;51.024;7.540;2023-03-26T05:30:31;8.60;99.90
15455;DHT22;21057;51.024;7.540;2023-03-26T05:33:07;8.70;99.90
15455;DHT22;21057;51.024;7.540;2023-03-26T05:35:34;8.70;99.90
15455;DHT22;21057;51.024;7.540;2023-03-26T05:38:01;8.70;99.90
15455;DHT22;21057;51.024;7.540;2023-03-26T05:40:28;8.80;99.90
15455;DHT22;21057;51.024;7.540;2023-03-26T05:42:55;8.70;99.90
15455;DHT22;21057;51.024;7.540;2023-03-26T05:45:23;8.80;99.90
15455;DHT22;21057;51.024;7.540;2023-03-26T05:47:50;8.90;99.90
15455;DHT22;21057;51.024;7.540;2023-03-26T05:50:18;8.80;99.90
15455;DHT22;21057;51.024;7.540;2023-03-26T05:52:47;8.70;99.90
15455;DHT22;21057;51.024;7.540;2023-03-26T05:55:13;8.70;99.90
15455;DHT22;21057;51.024;7.540;2023-03-26T05:57:42;8.80;99.90
15455;DHT22;21057;51.024;7.540;2023-03-26T06:00:12;9.00;99.90
15455;DHT22;21057;51.024;7.540;2023-03-26T06:02:41;8.90;99.90
15455;DHT22;21057;51.024;7.540;2023-03-26T06:05:08;8.90;99.90
15455;DHT22;21057;51.024;7.540;2023-03-26T06:07:36;8.90;99.90
15455;DHT22;21057;51.024;7.540;2023-03-26T06:10:05;8.80;99.90
15455;DHT22;21057;51.024;7.540;2023-03-26T06:12:38;8.90;99.90
15455;DHT22;21057;51.024;7.540;2023-03-26T06:15:07;8.90;99.90
15455;DHT22;21057;51.024;7.540;2023-03-26T06:17:36;8.90;99.90
15455;DHT22;21057;51.024;7.540;2023-03-26T06:20:05;9.00;99.90
15455;DHT22;21057;51.024;7.540;2023-03-26T06:22:33;9.00;99.90
15455;DHT22;21057;51.024;7.540;2023-03-26T06:25:00;9.00;99.90
15455;DHT22;21057;51.024;7.540;2023-03-26T06:27:27;9.00;99.90
15455;DHT22;21057;51.024;7.540;2023-03-26T06:29:53;9.00;99.90
15455;DHT22;21057;51.024;7.540;2023-03-26T06:32:22;9.00;99.90
15455;DHT22;21057;51.024;7.540;2023-03-26T06:34:49;9.20;99.90
15455;DHT22;21057;51.024;7.540;2023-03-26T06:37:18;9.20;99.90
15455;DHT22;21057;51.024;7.540;2023-03-26T06:39:44;9.10;99.90
15455;DHT22;21057;51.024;7.540;2023-03-26T06:42:14;9.10;99.90
15455;DHT22;21057;51.024;7.540;2023-03-26T06:45:04;9.10;99.90
15455;DHT22;21057;51.024;7.540;2023-03-26T06:47:31;9.10;99.90
15455;DHT22;21057;51.024;7.540;2023-03-26T06:49:58;9.10;99.90
15455;DHT22;21057;51.024;7.540;2023-03-26T06:52:32;9.10;99.90
15455;DHT22;21057;51.024;7.540;2023-03-26T06:55:00;9.30;99.90
15455;DHT22;21057;51.024;7.540;2023-03-26T06:57:29;9.30;99.90
15455;DHT22;21057;51.024;7.540;2023-03-26T06:59:55;9.20;99.90
15455;DHT22;21057;51.024;7.540;2023-03-26T07:02:22;9.20;99.90
15455;DHT22;21057;51.024;7.540;2023-03-26T07:04:49;9.20;99.90
15455;DHT22;21057;51.024;7.540;2023-03-26T07:07:16;9.20;99.90
15455;DHT22;21057;51.024;7.540;2023-03-26T07:09:47;9.40;99.90
15455;DHT22;21057;51.024;7.540;2023-03-26T07:12:15;9.40;99.90
15455;DHT22;21057;51.024;7.540;2023-03-26T07:14:42;9.20;99.90
15455;DHT22;21057;51.024;7.540;2023-03-26T07:17:09;9.30;99.90
15455;DHT22;21057;51.024;7.540;2023-03-26T07:19:37;9.40;99.90
15455;DHT22;21057;51.024;7.540;2023-03-26T07:22:07;9.40;99.90
15455;DHT22;21057;51.024;7.540;2023-03-26T07:24:41;9.40;99.90
15455;DHT22;21057;51.024;7.540;2023-03-26T07:27:27;9.40;99.90
15455;DHT22;21057;51.024;7.540;2023-03-26T07:30:07;9.40;99.90
15455;DHT22;21057;51.024;7.540;2023-03-26T07:32:44;9.40;99.90
15455;DHT22;21057;51.024;7.540;2023-03-26T07:35:17;9.50;99.90
15455;DHT22;21057;51.024;7.540;2023-03-26T07:37:51;9.60;99.90
15455;DHT22;21057;51.024;7.540;2023-03-26T07:40:36;9.60;99.90
15455;DHT22;21057;51.024;7.540;2023-03-26T07:43:30;9.70;99.90
15455;DHT22;21057;51.024;7.540;2023-03-26T07:45:58;9.70;99.90
15455;DHT22;21057;51.024;7.540;2023-03-26T07:48:28;9.60;99.90
15455;DHT22;21057;51.024;7.540;2023-03-26T07:50:58;9.60;99.90
15455;DHT22;21057;51.024;7.540;2023-03-26T07:53:27;9.70;99.90
15455;DHT22;21057;51.024;7.540;2023-03-26T07:56:06;9.80;99.90
15455;DHT22;21057;51.024;7.540;2023-03-26T07:58:55;9.80;99.90
15455;DHT22;21057;51.024;7.540;2023-03-26T08:01:42;9.70;99.90
15455;DHT22;21057;51.024;7.540;2023-03-26T08:07:19;9.70;99.90
15455;DHT22;21057;51.024;7.540;2023-03-26T08:10:00;9.70;99.90
15455;DHT22;21057;51.024;7.540;2023-03-26T08:12:37;9.80;99.90
15455;DHT22;21057;51.024;7.540;2023-03-26T08:15:11;9.90;99.90
15455;DHT22;21057;51.024;7.540;2023-03-26T08:17:46;9.80;99.90
15455;DHT22;21057;51.024;7.540;2023-03-26T08:20:25;10.00;99.90
15455;DHT22;21057;51.024;7.540;2023-03-26T08:23:00;9.90;99.90
15455;DHT22;21057;51.024;7.540;2023-03-26T08:25:33;9.90;99.90
15455;DHT22;21057;51.024;7.540;2023-03-26T08:28:13;9.90;99.90
15455;DHT22;21057;51.024;7.540;2023-03-26T08:30:43;9.90;99.90
15455;DHT22;21057;51.024;7.540;2023-03-26T08:33:14;9.80;99.90
15455;DHT22;21057;51.024;7.540;2023-03-26T08:35:54;9.80;99.90
15455;DHT22;21057;51.024;7.540;2023-03-26T08:38:24;9.80;99.90
15455;DHT22;21057;51.024;7.540;2023-03-26T08:56:31;9.90;99.90
15455;DHT22;21057;51.024;7.540;2023-03-26T09:02:23;9.80;99.90
15455;DHT22;21057;51.024;7.540;2023-03-26T09:05:25;9.80;99.90
15455;DHT22;21057;51.024;7.540;2023-03-26T09:08:27;9.90;99.90
15455;DHT22;21057;51.024;7.540;2023-03-26T09:11:28;9.80;99.90
15455;DHT22;21057;51.024;7.540;2023-03-26T09:20:52;9.30;99.90
15455;DHT22;21057;51.024;7.540;2023-03-26T09:26:35;9.60;99.90
15455;DHT22;21057;51.024;7.540;2023-03-26T09:29:40;9.30;99.90
15455;DHT22;21057;51.024;7.540;2023-03-26T09:36:02;9.00;99.90
15455;DHT22;21057;51.024;7.540;2023-03-26T09:38:41;8.80;99.90
15455;DHT22;21057;51.024;7.540;2023-03-26T09:41:13;8.80;99.90
15455;DHT22;21057;51.024;7.540;2023-03-26T09:44:23;8.90;99.90
15455;DHT22;21057;51.024;7.540;2023-03-26T09:47:04;8.90;99.90
15455;DHT22;21057;51.024;7.540;2023-03-26T09:49:46;9.10;99.90
15455;DHT22;21057;51.024;7.540;2023-03-26T09:52:35;9.10;99.90
15455;DHT22;21057;51.024;7.540;2023-03-26T09:55:32;9.10;99.90
15455;DHT22;21057;51.024;7.540;2023-03-26T09:58:28;8.90;99.90
15455;DHT22;21057;51.024;7.540;2023-03-26T10:01:03;9.00;99.90
15455;DHT22;21057;51.024;7.540;2023-03-26T10:03:47;9.00;99.90
15455;DHT22;21057;51.024;7.540;2023-03-26T10:06:35;9.20;99.90
15455;DHT22;21057;51.024;7.540;2023-03-26T10:09:39;9.20;99.90
15455;DHT22;21057;51.024;7.540;2023-03-26T10:12:16;9.20;99.90
15455;DHT22;21057;51.024;7.540;2023-03-26T10:14:56;9.20;99.90
15455;DHT22;21057;51.024;7.540;2023-03-26T10:17:39;9.10;99.90
15455;DHT22;21057;51.024;7.540;2023-03-26T10:20:25;9.10;99.90
15455;DHT22;21057;51.024;7.540;2023-03-26T10:23:02;9.00;99.90
15455;DHT22;21057;51.024;7.540;2023-03-26T10:25:41;9.00;99.90
15455;DHT22;21057;51.024;7.540;2023-03-26T10:28:21;9.10;99.90
15455;DHT22;21057;51.024;7.540;2023-03-26T10:31:03;9.30;99.90
15455;DHT22;21057;51.024;7.540;2023-03-26T10:33:42;9.30;99.90
15455;DHT22;21057;51.024;7.540;2023-03-26T10:36:37;9.30;99.90
15455;DHT22;21057;51.024;7.540;2023-03-26T10:39:33;9.30;99.90
15455;DHT22;21057;51.024;7.540;2023-03-26T10:42:23;9.20;99.90
15455;DHT22;21057;51.024;7.540;2023-03-26T10:45:24;9.40;99.90
15455;DHT22;21057;51.024;7.540;2023-03-26T10:51:15;9.30;99.90
15455;DHT22;21057;51.024;7.540;2023-03-26T10:53:47;9.50;99.90
15455;DHT22;21057;51.024;7.540;2023-03-26T10:56:21;9.50;99.90
15455;DHT22;21057;51.024;7.540;2023-03-26T10:58:52;9.50;99.90
15455;DHT22;21057;51.024;7.540;2023-03-26T11:01:27;9.30;99.90
15455;DHT22;21057;51.024;7.540;2023-03-26T11:04:19;9.20;99.90
15455;DHT22;21057;51.024;7.540;2023-03-26T11:06:55;9.30;99.90
15455;DHT22;21057;51.024;7.540;2023-03-26T11:09:32;9.40;99.90
15455;DHT22;21057;51.024;7.540;2023-03-26T11:12:16;9.40;99.90
15455;DHT22;21057;51.024;7.540;2023-03-26T11:15:12;9.30;99.90
15455;DHT22;21057;51.024;7.540;2023-03-26T11:17:50;9.30;99.90
15455;DHT22;21057;51.024;7.540;2023-03-26T11:20:28;9.20;99.90
15455;DHT22;21057;51.024;7.540;2023-03-26T11:23:14;9.20;99.90
15455;DHT22;21057;51.024;7.540;2023-03-26T11:25:51;9.30;99.90
15455;DHT22;21057;51.024;7.540;2023-03-26T11:31:31;9.20;99.90
15455;DHT22;21057;51.024;7.540;2023-03-26T11:34:12;9.30;99.90
15455;DHT22;21057;51.024;7.540;2023-03-26T11:36:53;9.30;99.90
15455;DHT22;21057;51.024;7.540;2023-03-26T11:39:25;9.30;99.90
15455;DHT22;21057;51.024;7.540;2023-03-26T11:42:03;9.40;99.90
15455;DHT22;21057;51.024;7.540;2023-03-26T11:44:37;9.50;99.90
15455;DHT22;21057;51.024;7.540;2023-03-26T11:47:08;9.60;99.90
15455;DHT22;21057;51.024;7.540;2023-03-26T11:49:44;9.50;99.90
15455;DHT22;21057;51.024;7.540;2023-03-26T11:52:12;9.60;99.90
15455;DHT22;21057;51.024;7.540;2023-03-26T11:54:40;9.50;99.90
15455;DHT22;21057;51.024;7.540;2023-03-26T11:57:11;9.60;99.90
15455;DHT22;21057;51.024;7.540;2023-03-26T11:59:44;9.60;99.90
15455;DHT22;21057;51.024;7.540;2023-03-26T12:02:24;9.60;99.90
15455;DHT22;21057;51.024;7.540;2023-03-26T12:05:11;9.70;99.90
15455;DHT22;21057;51.024;7.540;2023-03-26T12:07:45;10.00;99.90
15455;DHT22;21057;51.024;7.540;2023-03-26T12:10:35;10.20;99.90
15455;DHT22;21057;51.024;7.540;2023-03-26T12:13:23;10.30;99.90
15455;DHT22;21057;51.024;7.540;2023-03-26T12:16:07;10.30;99.90
15455;DHT22;21057;51.024;7.540;2023-03-26T12:18:36;10.30;99.90
15455;DHT22;21057;51.024;7.540;2023-03-26T12:21:06;10.30;99.90
15455;DHT22;21057;51.024;7.540;2023-03-26T12:23:45;9.90;99.90
15455;DHT22;21057;51.024;7.540;2023-03-26T12:26:27;9.30;99.90
15455;DHT22;21057;51.024;7.540;2023-03-26T12:29:17;9.20;99.90
15455;DHT22;21057;51.024;7.540;2023-03-26T12:31:56;9.50;99.90
15455;DHT22;21057;51.024;7.540;2023-03-26T12:34:32;9.70;99.90
15455;DHT22;21057;51.024;7.540;2023-03-26T12:37:03;10.00;99.90
15455;DHT22;21057;51.024;7.540;2023-03-26T12:39:41;10.10;99.90
15455;DHT22;21057;51.024;7.540;2023-03-26T12:42:26;10.20;99.90
15455;DHT22;21057;51.024;7.540;2023-03-26T12:44:56;10.30;99.90
15455;DHT22;21057;51.024;7.540;2023-03-26T12:47:26;10.30;99.90
15455;DHT22;21057;51.024;7.540;2023-03-26T12:49:57;10.40;99.90
15455;DHT22;21057;51.024;7.540;2023-03-26T12:52:56;10.40;99.90
15455;DHT22;21057;51.024;7.540;2023-03-26T12:55:41;10.50;99.90
15455;DHT22;21057;51.024;7.540;2023-03-26T12:58:43;10.50;99.90
15455;DHT22;21057;51.024;7.540;2023-03-26T13:01:30;10.50;99.90
15455;DHT22;21057;51.024;7.540;2023-03-26T13:04:11;10.60;99.90
15455;DHT22;21057;51.024;7.540;2023-03-26T13:06:53;10.60;99.90
15455;DHT22;21057;51.024;7.540;2023-03-26T13:09:37;10.50;99.90
15455;DHT22;21057;51.024;7.540;2023-03-26T13:12:23;10.60;99.90
15455;DHT22;21057;51.024;7.540;2023-03-26T13:15:10;10.50;99.90
15455;DHT22;21057;51.024;7.540;2023-03-26T13:17:51;10.60;99.90
15455;DHT22;21057;51.024;7.540;2023-03-26T13:20:39;10.60;99.90
15455;DHT22;21057;51.024;7.540;2023-03-26T13:23:29;10.60;99.90
15455;DHT22;21057;51.024;7.540;2023-03-26T13:26:14;10.80;99.90
15455;DHT22;21057;51.024;7.540;2023-03-26T13:28:49;11.00;99.90
15455;DHT22;21057;51.024;7.540;2023-03-26T13:31:33;11.20;99.90
15455;DHT22;21057;51.024;7.540;2023-03-26T13:34:11;11.50;99.90
15455;DHT22;21057;51.024;7.540;2023-03-26T13:36:58;11.60;99.90
15455;DHT22;21057;51.024;7.540;2023-03-26T13:39:36;11.60;99.90
15455;DHT22;21057;51.024;7.540;2023-03-26T13:42:24;11.30;99.90
15455;DHT22;21057;51.024;7.540;2023-03-26T13:44:59;11.50;99.90
15455;DHT22;21057;51.024;7.540;2023-03-26T13:47:32;11.50;99.90
15455;DHT22;21057;51.024;7.540;2023-03-26T13:50:20;11.40;99.90
15455;DHT22;21057;51.024;7.540;2023-03-26T13:52:59;11.30;99.90
15455;DHT22;21057;51.024;7.540;2023-03-26T13:55:32;11.20;99.90
15455;DHT22;21057;51.024;7.540;2023-03-26T13:58:15;11.10;99.90
15455;DHT22;21057;51.024;7.540;2023-03-26T14:00:51;11.20;99.90
15455;DHT22;21057;51.024;7.540;2023-03-26T14:03:26;11.20;99.90
15455;DHT22;21057;51.024;7.540;2023-03-26T14:05:59;11.10;99.90
15455;DHT22;21057;51.024;7.540;2023-03-26T14:08:33;11.00;99.90
15455;DHT22;21057;51.024;7.540;2023-03-26T14:11:08;10.80;99.90
15455;DHT22;21057;51.024;7.540;2023-03-26T14:13:42;10.60;99.90
15455;DHT22;21057;51.024;7.540;2023-03-26T14:16:15;10.70;99.90
15455;DHT22;21057;51.024;7.540;2023-03-26T14:18:47;10.40;99.90
15455;DHT22;21057;51.024;7.540;2023-03-26T14:21:35;10.00;99.90
15455;DHT22;21057;51.024;7.540;2023-03-26T14:24:27;10.10;99.90
15455;DHT22;21057;51.024;7.540;2023-03-26T14:27:14;10.30;99.90
15455;DHT22;21057;51.024;7.540;2023-03-26T14:29:58;10.00;99.90
15455;DHT22;21057;51.024;7.540;2023-03-26T14:32:36;9.90;99.90
15455;DHT22;21057;51.024;7.540;2023-03-26T14:35:30;9.70;99.90
15455;DHT22;21057;51.024;7.540;2023-03-26T14:40:55;10.10;99.90
15455;DHT22;21057;51.024;7.540;2023-03-26T14:46:37;10.20;99.90
15455;DHT22;21057;51.024;7.540;2023-03-26T14:52:07;10.30;99.90
15455;DHT22;21057;51.024;7.540;2023-03-26T14:54:40;10.40;99.90
15455;DHT22;21057;51.024;7.540;2023-03-26T14:57:35;10.50;99.90
15455;DHT22;21057;51.024;7.540;2023-03-26T15:07:07;10.70;99.90
15455;DHT22;21057;51.024;7.540;2023-03-26T15:10:10;10.40;99.90
15455;DHT22;21057;51.024;7.540;2023-03-26T15:13:04;10.10;99.90
15455;DHT22;21057;51.024;7.540;2023-03-26T15:19:02;10.20;99.90
15455;DHT22;21057;51.024;7.540;2023-03-26T15:22:23;10.10;99.90
15455;DHT22;21057;51.024;7.540;2023-03-26T15:28:50;9.80;99.90
15455;DHT22;21057;51.024;7.540;2023-03-26T15:31:41;9.70;99.90
15455;DHT22;21057;51.024;7.540;2023-03-26T15:37:52;9.70;99.90
15455;DHT22;21057;51.024;7.540;2023-03-26T15:40:33;9.70;99.90
15455;DHT22;21057;51.024;7.540;2023-03-26T15:43:08;9.40;99.90
15455;DHT22;21057;51.024;7.540;2023-03-26T15:45:39;9.60;99.90
15455;DHT22;21057;51.024;7.540;2023-03-26T15:48:27;9.60;99.90
15455;DHT22;21057;51.024;7.540;2023-03-26T15:51:30;9.70;99.90
15455;DHT22;21057;51.024;7.540;2023-03-26T15:54:08;10.00;99.90
15455;DHT22;21057;51.024;7.540;2023-03-26T15:56:59;9.70;99.90
15455;DHT22;21057;51.024;7.540;2023-03-26T15:59:44;9.90;99.90
15455;DHT22;21057;51.024;7.540;2023-03-26T16:02:26;9.80;99.90
15455;DHT22;21057;51.024;7.540;2023-03-26T16:05:00;9.90;99.90
15455;DHT22;21057;51.024;7.540;2023-03-26T16:07:47;10.00;99.90
15455;DHT22;21057;51.024;7.540;2023-03-26T16:10:28;9.70;99.90
15455;DHT22;21057;51.024;7.540;2023-03-26T16:13:25;9.60;99.90
15455;DHT22;21057;51.024;7.540;2023-03-26T16:19:31;9.10;99.90
15455;DHT22;21057;51.024;7.540;2023-03-26T16:22:04;9.40;99.90
15455;DHT22;21057;51.024;7.540;2023-03-26T16:24:38;9.50;99.90
15455;DHT22;21057;51.024;7.540;2023-03-26T16:27:32;9.50;99.90
15455;DHT22;21057;51.024;7.540;2023-03-26T16:30:27;9.40;99.90
15455;DHT22;21057;51.024;7.540;2023-03-26T16:33:17;8.80;99.90
15455;DHT22;21057;51.024;7.540;2023-03-26T16:36:13;8.60;99.90
15455;DHT22;21057;51.024;7.540;2023-03-26T16:38:53;8.50;99.90
15455;DHT22;21057;51.024;7.540;2023-03-26T16:42:00;8.70;99.90
15455;DHT22;21057;51.024;7.540;2023-03-26T16:44:42;8.70;99.90
15455;DHT22;21057;51.024;7.540;2023-03-26T16:47:20;8.70;99.90
15455;DHT22;21057;51.024;7.540;2023-03-26T16:50:12;8.80;99.90
15455;DHT22;21057;51.024;7.540;2023-03-26T16:52:48;8.80;99.90
15455;DHT22;21057;51.024;7.540;2023-03-26T16:55:31;8.50;99.90
15455;DHT22;21057;51.024;7.540;2023-03-26T16:58:14;8.40;99.90
15455;DHT22;21057;51.024;7.540;2023-03-26T17:00:48;8.60;99.90
15455;DHT22;21057;51.024;7.540;2023-03-26T17:03:32;8.40;99.90
15455;DHT22;21057;51.024;7.540;2023-03-26T17:06:27;8.40;99.90
15455;DHT22;21057;51.024;7.540;2023-03-26T17:09:04;8.50;99.90
15455;DHT22;21057;51.024;7.540;2023-03-26T17:11:59;8.50;99.90
15455;DHT22;21057;51.024;7.540;2023-03-26T17:14:39;8.40;99.90
15455;DHT22;21057;51.024;7.540;2023-03-26T17:17:43;8.40;99.90
15455;DHT22;21057;51.024;7.540;2023-03-26T17:20:22;8.30;99.90
15455;DHT22;21057;51.024;7.540;2023-03-26T17:22:56;8.20;99.90
15455;DHT22;21057;51.024;7.540;2023-03-26T17:25:35;8.50;99.90
15455;DHT22;21057;51.024;7.540;2023-03-26T17:28:23;8.50;99.90
15455;DHT22;21057;51.024;7.540;2023-03-26T17:31:15;8.50;99.90
15455;DHT22;21057;51.024;7.540;2023-03-26T17:33:47;8.50;99.90
15455;DHT22;21057;51.024;7.540;2023-03-26T17:36:50;8.50;99.90
15455;DHT22;21057;51.024;7.540;2023-03-26T17:42:38;8.30;99.90
15455;DHT22;21057;51.024;7.540;2023-03-26T17:45:32;8.30;99.90
15455;DHT22;21057;51.024;7.540;2023-03-26T17:48:19;8.40;99.90
15455;DHT22;21057;51.024;7.540;2023-03-26T17:51:01;8.30;99.90
15455;DHT22;21057;51.024;7.540;2023-03-26T17:53:33;8.10;99.90
15455;DHT22;21057;51.024;7.540;2023-03-26T17:56:03;8.10;99.90